createdAt,value
2022-09-05T00:02:02.343Z,5.80
2022-09-05T00:05:19.345Z,3.97
2022-09-05T00:08:02.451Z,4.20
2022-09-05T00:11:18.130Z,3.88
2022-09-05T00:15:14.641Z,3.40
2022-09-05T00:19:09.350Z,5.63
2022-09-05T00:24:26.771Z,4.57
2022-09-05T00:25:07.212Z,4.85
2022-09-05T00:28:41.312Z,3.88
2022-09-05T00:31:55.520Z,3.95
2022-09-05T00:35:08.573Z,4.13
2022-09-05T00:37:49.313Z,3.33
2022-09-05T00:40:37.839Z,3.88
2022-09-05T00:43:27.373Z,7.07
2022-09-05T00:46:08.932Z,4.05
2022-09-05T00:49:25.379Z,6.38
2022-09-05T00:52:02.182Z,11.13
2022-09-05T00:54:53.403Z,9.80
2022-09-05T00:58:05.345Z,10.98
2022-09-05T01:00:52.355Z,10.60
2022-09-05T01:04:13.367Z,13.38
2022-09-05T01:07:00.104Z,12.00
2022-09-05T01:10:14.389Z,15.85
2022-09-05T01:13:11.652Z,15.90
2022-09-05T01:16:22.443Z,14.27
2022-09-05T01:19:42.414Z,15.45
2022-09-05T01:22:49.415Z,15.20
2022-09-05T01:25:54.922Z,16.70
2022-09-05T01:29:19.376Z,13.40
2022-09-05T01:32:33.200Z,14.00
2022-09-05T01:35:34.397Z,13.07
2022-09-05T01:38:48.304Z,15.65
2022-09-05T01:41:50.417Z,12.40
2022-09-05T01:44:37.559Z,10.93
2022-09-05T01:47:37.442Z,12.90
2022-09-05T01:50:38.391Z,12.95
2022-09-05T01:53:55.214Z,14.45
2022-09-05T01:57:12.454Z,16.83
2022-09-05T02:00:17.435Z,10.88
2022-09-05T02:03:43.378Z,12.35
2022-09-05T02:06:51.735Z,8.50
2022-09-05T02:09:34.440Z,8.35
2022-09-05T02:12:20.246Z,7.55
2022-09-05T02:15:07.425Z,6.70
2022-09-05T02:17:49.654Z,6.88
2022-09-05T02:20:52.440Z,8.60
2022-09-05T02:23:24.617Z,7.68
2022-09-05T02:26:27.469Z,5.82
2022-09-05T02:29:29.628Z,5.53
2022-09-05T02:32:32.440Z,6.72
2022-09-05T02:35:14.750Z,6.03
2022-09-05T02:39:09.140Z,7.00
2022-09-05T02:45:08.056Z,5.63
2022-09-05T02:45:25.702Z,6.00
2022-09-05T02:48:15.451Z,8.05
2022-09-05T02:57:23.112Z,5.05
2022-09-05T02:57:34.408Z,6.57
2022-09-05T02:57:35.916Z,8.48
2022-09-05T03:00:27.494Z,7.50
2022-09-05T03:03:35.568Z,9.93
2022-09-05T03:06:38.442Z,6.25
2022-09-05T03:09:49.437Z,7.43
2022-09-05T03:12:55.860Z,7.20
2022-09-05T03:16:15.539Z,5.68
2022-09-05T03:19:04.499Z,5.55
2022-09-05T03:21:49.478Z,7.90
2022-09-05T03:24:56.500Z,7.20
2022-09-05T03:28:11.470Z,7.15
2022-09-05T03:31:22.673Z,7.88
2022-09-05T03:34:10.480Z,5.60
2022-09-05T03:37:34.727Z,5.57
2022-09-05T03:40:45.511Z,5.78
2022-09-05T03:43:54.004Z,6.90
2022-09-05T03:46:45.469Z,6.32
2022-09-05T03:57:04.866Z,6.45
2022-09-05T03:57:08.043Z,6.15
2022-09-05T03:57:27.458Z,5.35
2022-09-05T03:59:30.554Z,6.03
2022-09-05T04:04:37.900Z,7.15
2022-09-05T04:08:15.981Z,5.85
2022-09-05T04:08:38.822Z,5.55
2022-09-05T04:11:35.511Z,6.35
2022-09-05T04:14:50.491Z,5.72
2022-09-05T04:17:37.475Z,8.20
2022-09-05T04:20:08.472Z,7.22
2022-09-05T04:23:27.526Z,5.65
2022-09-05T04:26:09.313Z,5.63
2022-09-05T04:29:27.492Z,5.38
2022-09-05T04:32:15.458Z,5.75
2022-09-05T04:35:46.505Z,5.55
2022-09-05T04:38:18.305Z,6.65
2022-09-05T04:41:14.492Z,5.43
2022-09-05T04:43:57.625Z,6.78
2022-09-05T04:46:57.501Z,9.05
2022-09-05T04:49:31.265Z,9.75
2022-09-05T04:52:34.520Z,6.97
2022-09-05T04:55:25.537Z,5.57
2022-09-05T04:58:06.519Z,6.05
2022-09-05T05:05:58.697Z,5.90
2022-09-05T05:06:16.897Z,6.35
2022-09-05T05:06:45.370Z,5.40
2022-09-05T05:10:19.516Z,5.40
2022-09-05T05:17:35.327Z,5.07
2022-09-05T05:18:11.989Z,5.28
2022-09-05T05:19:04.280Z,5.40
2022-09-05T05:21:39.553Z,4.85
2022-09-05T05:24:43.738Z,5.45
2022-09-05T05:27:59.535Z,6.93
2022-09-05T05:30:28.577Z,4.82
2022-09-05T05:33:01.542Z,5.55
2022-09-05T05:35:38.581Z,6.50
2022-09-05T05:38:28.129Z,6.30
2022-09-05T05:41:44.542Z,6.00
2022-09-05T05:44:23.549Z,8.45
2022-09-05T05:46:58.700Z,6.53
2022-09-05T05:50:04.562Z,5.15
2022-09-05T05:53:00.317Z,5.20
2022-09-05T05:55:59.551Z,5.85
2022-09-05T05:58:52.570Z,5.82
2022-09-05T06:01:37.923Z,7.60
2022-09-05T06:05:03.969Z,5.10
2022-09-05T06:12:18.925Z,6.30
2022-09-05T06:15:01.461Z,6.07
2022-09-05T06:15:15.200Z,5.35
2022-09-05T06:18:05.580Z,5.07
2022-09-05T06:22:10.650Z,6.60
2022-09-05T06:24:28.731Z,5.85
2022-09-05T06:27:32.330Z,5.68
2022-09-05T06:30:27.545Z,6.03
2022-09-05T06:33:17.735Z,6.72
2022-09-05T06:36:04.694Z,5.55
2022-09-05T06:39:11.059Z,5.80
2022-09-05T06:42:33.363Z,5.97
2022-09-05T06:45:37.740Z,5.15
2022-09-05T06:48:46.115Z,4.63
2022-09-05T06:51:45.184Z,4.68
2022-09-05T06:54:59.542Z,4.63
2022-09-05T06:58:02.042Z,7.45
2022-09-05T07:01:08.895Z,5.47
2022-09-05T07:04:51.472Z,5.47
2022-09-05T07:07:12.748Z,4.40
2022-09-05T07:10:35.012Z,4.60
2022-09-05T07:14:02.944Z,4.20
2022-09-05T07:16:53.799Z,4.93
2022-09-05T07:19:30.052Z,8.63
2022-09-05T07:22:47.431Z,4.93
2022-09-05T07:25:37.834Z,5.22
2022-09-05T07:28:28.887Z,4.50
2022-09-05T07:31:11.252Z,5.40
2022-09-05T07:33:38.655Z,5.95
2022-09-05T07:36:40.956Z,6.50
2022-09-05T07:39:27.854Z,5.75
2022-09-05T07:42:07.259Z,7.95
2022-09-05T07:44:39.659Z,5.90
2022-09-05T07:47:36.193Z,6.78
2022-09-05T07:51:52.656Z,7.13
2022-09-05T07:56:48.019Z,5.03
2022-09-05T07:57:08.067Z,5.72
2022-09-05T07:58:52.764Z,8.88
2022-09-05T08:01:30.013Z,9.27
2022-09-05T08:04:05.472Z,9.13
2022-09-05T08:07:45.716Z,8.73
2022-09-05T08:10:09.339Z,9.45
2022-09-05T08:13:24.217Z,8.60
2022-09-05T08:16:10.997Z,7.97
2022-09-05T08:19:34.878Z,12.27
2022-09-05T08:22:04.671Z,12.88
2022-09-05T08:24:55.868Z,8.70
2022-09-05T08:28:04.475Z,10.63
2022-09-05T08:30:47.899Z,12.13
2022-09-05T08:33:26.177Z,11.70
2022-09-05T08:36:03.082Z,10.32
2022-09-05T08:38:40.562Z,10.68
2022-09-05T08:41:25.963Z,9.23
2022-09-05T08:46:42.291Z,10.00
2022-09-05T08:48:32.990Z,9.77
2022-09-05T08:51:34.207Z,8.57
2022-09-05T08:54:36.683Z,10.13
2022-09-05T08:57:26.984Z,11.68
2022-09-05T09:00:24.437Z,9.73
2022-09-05T09:03:19.044Z,11.23
2022-09-05T09:06:12.792Z,9.07
2022-09-05T09:09:43.988Z,10.13
2022-09-05T09:12:37.287Z,12.23
2022-09-05T09:15:35.099Z,7.00
2022-09-05T09:18:17.192Z,8.75
2022-09-05T09:21:37.291Z,7.93
2022-09-05T09:25:11.932Z,9.98
2022-09-05T09:28:48.578Z,7.43
2022-09-05T09:31:03.239Z,9.20
2022-09-05T09:33:46.672Z,7.38
2022-09-05T09:36:52.000Z,10.80
2022-09-05T09:39:53.641Z,11.18
2022-09-05T09:42:50.305Z,9.82
2022-09-05T09:45:57.829Z,7.32
2022-09-05T09:48:58.731Z,11.52
2022-09-05T09:51:47.617Z,7.78
2022-09-05T09:55:29.738Z,7.20
2022-09-05T09:58:35.235Z,8.13
2022-09-05T10:01:35.989Z,9.52
2022-09-05T10:08:59.772Z,10.38
2022-09-05T10:10:58.128Z,10.35
2022-09-05T10:10:59.082Z,9.00
2022-09-05T10:14:49.868Z,11.52
2022-09-05T10:17:43.084Z,9.07
2022-09-05T10:21:16.262Z,9.80
2022-09-05T10:24:33.012Z,10.63
2022-09-05T10:27:24.984Z,9.88
2022-09-05T10:30:13.839Z,7.10
2022-09-05T10:35:09.967Z,8.45
2022-09-05T10:35:44.953Z,7.55
2022-09-05T10:38:28.119Z,7.72
2022-09-05T10:41:20.521Z,7.85
2022-09-05T10:44:07.417Z,9.88
2022-09-05T10:47:41.019Z,7.35
2022-09-05T10:50:33.227Z,5.70
2022-09-05T10:53:39.769Z,6.38
2022-09-05T10:56:20.620Z,8.65
2022-09-05T11:00:30.566Z,6.00
2022-09-05T11:02:20.028Z,6.70
2022-09-05T11:05:11.441Z,8.88
2022-09-05T11:08:25.326Z,7.22
2022-09-05T11:11:28.498Z,6.25
2022-09-05T11:14:26.346Z,5.85
2022-09-05T11:16:56.361Z,5.03
2022-09-05T11:19:51.929Z,4.18
2022-09-05T11:22:24.009Z,5.85
2022-09-05T11:25:01.131Z,5.38
2022-09-05T11:27:42.929Z,7.07
2022-09-05T11:30:30.327Z,5.30
2022-09-05T11:39:14.806Z,7.53
2022-09-05T11:40:07.048Z,5.22
2022-09-05T11:41:06.821Z,6.45
2022-09-05T11:44:30.499Z,5.70
2022-09-05T11:47:28.381Z,5.88
2022-09-05T11:50:51.145Z,5.97
2022-09-05T11:54:03.940Z,5.88
2022-09-05T11:57:33.831Z,4.63
2022-09-05T12:00:33.511Z,3.72
2022-09-05T12:03:59.027Z,4.78
2022-09-05T12:07:04.242Z,3.95
2022-09-05T12:10:47.361Z,3.22
2022-09-05T12:13:26.370Z,3.13
2022-09-05T12:16:08.414Z,3.50
2022-09-05T12:19:19.529Z,3.85
2022-09-05T12:22:32.722Z,4.57
2022-09-05T12:27:40.933Z,3.72
2022-09-05T12:29:33.692Z,3.85
2022-09-05T12:33:56.636Z,3.95
2022-09-05T12:36:07.376Z,6.28
2022-09-05T12:40:53.763Z,8.15
2022-09-05T12:41:44.712Z,4.55
2022-09-05T12:44:42.286Z,4.35
2022-09-05T12:47:20.125Z,3.67
2022-09-05T12:50:15.197Z,4.57
2022-09-05T12:53:13.902Z,3.25
2022-09-05T12:57:32.516Z,3.50
2022-09-05T13:03:02.905Z,3.60
2022-09-05T13:03:12.927Z,5.97
2022-09-05T13:05:01.945Z,2.78
2022-09-05T13:07:57.959Z,3.25
2022-09-05T13:14:50.602Z,2.85
2022-09-05T13:15:07.973Z,3.20
2022-09-05T13:16:39.924Z,4.28
2022-09-05T13:19:26.609Z,2.83
2022-09-05T13:21:59.912Z,3.35
2022-09-05T13:24:29.762Z,3.50
2022-09-05T13:27:20.996Z,2.75
2022-09-05T13:32:32.244Z,3.55
2022-09-05T13:38:05.947Z,3.17
2022-09-05T13:38:10.928Z,2.97
2022-09-05T13:39:05.958Z,3.92
2022-09-05T13:41:54.937Z,3.58
2022-09-05T13:44:25.226Z,4.30
2022-09-05T13:46:58.175Z,3.08
2022-09-05T13:49:40.967Z,3.85
2022-09-05T13:52:38.957Z,3.45
2022-09-05T13:55:32.923Z,2.85
2022-09-05T13:58:29.000Z,2.90
2022-09-05T14:01:18.884Z,3.53
2022-09-05T14:07:46.154Z,4.25
2022-09-05T14:10:38.990Z,3.15
2022-09-05T14:13:22.944Z,2.97
2022-09-05T14:16:15.064Z,3.95
2022-09-05T14:18:50.738Z,3.45
2022-09-05T14:21:25.946Z,3.35
2022-09-05T14:24:04.841Z,3.25
2022-09-05T14:26:55.947Z,3.25
2022-09-05T14:29:42.024Z,3.60
2022-09-05T14:37:36.554Z,3.15
2022-09-05T14:37:39.711Z,3.38
2022-09-05T14:38:47.057Z,5.03
2022-09-05T14:42:10.055Z,4.88
2022-09-05T14:45:36.005Z,3.67
2022-09-05T14:49:07.247Z,3.22
2022-09-05T14:51:39.220Z,6.13
2022-09-05T15:02:26.323Z,3.97
2022-09-05T15:02:58.672Z,3.20
2022-09-05T15:03:15.768Z,3.63
2022-09-05T15:05:47.107Z,3.55
2022-09-05T15:11:13.889Z,5.10
2022-09-05T15:12:15.630Z,3.90
2022-09-05T15:14:16.010Z,3.58
2022-09-05T15:16:43.051Z,5.75
2022-09-05T15:19:17.021Z,3.90
2022-09-05T15:21:43.967Z,3.15
2022-09-05T15:24:27.052Z,3.63
2022-09-05T15:27:01.868Z,3.70
2022-09-05T15:29:38.029Z,2.97
2022-09-05T15:32:19.637Z,3.63
2022-09-05T15:34:53.044Z,4.50
2022-09-05T15:37:32.437Z,3.20
2022-09-05T15:40:22.373Z,3.28
2022-09-05T15:43:07.054Z,3.47
2022-09-05T15:45:37.390Z,4.20
2022-09-05T15:48:33.958Z,4.20
2022-09-05T15:51:11.267Z,3.22
2022-09-05T15:53:46.094Z,3.35
2022-09-05T15:56:14.657Z,2.78
2022-09-05T15:59:00.081Z,3.08
2022-09-05T16:01:59.793Z,4.55
2022-09-05T16:08:32.792Z,5.03
2022-09-05T16:10:34.563Z,4.57
2022-09-05T16:10:35.758Z,6.00
2022-09-05T16:13:16.004Z,3.03
2022-09-05T16:22:26.609Z,4.57
2022-09-05T16:23:17.445Z,6.53
2022-09-05T16:23:29.336Z,3.35
2022-09-05T16:24:59.393Z,3.38
2022-09-05T16:27:59.099Z,3.67
2022-09-05T16:30:44.133Z,4.28
2022-09-05T16:33:22.414Z,3.78
2022-09-05T16:36:31.163Z,3.33
2022-09-05T16:39:11.317Z,4.30
2022-09-05T16:41:59.075Z,3.70
2022-09-05T16:44:36.246Z,3.53
2022-09-05T16:47:36.746Z,4.88
2022-09-05T16:50:34.344Z,4.22
2022-09-05T16:53:48.185Z,4.10
2022-09-05T16:56:50.149Z,4.10
2022-09-05T16:59:32.131Z,3.95
2022-09-05T17:02:37.132Z,6.10
2022-09-05T17:05:50.150Z,4.43
2022-09-05T17:08:33.094Z,4.45
2022-09-05T17:11:03.470Z,6.18
2022-09-05T17:13:45.217Z,6.65
2022-09-05T17:16:42.106Z,4.47
2022-09-05T17:19:27.189Z,3.53
2022-09-05T17:25:48.761Z,3.60
2022-09-05T17:29:33.143Z,4.82
2022-09-05T17:29:34.491Z,5.15
2022-09-05T17:31:58.753Z,4.15
2022-09-05T17:35:17.744Z,4.68
2022-09-05T17:38:34.801Z,3.35
2022-09-05T17:41:41.185Z,4.03
2022-09-05T17:44:29.249Z,5.18
2022-09-05T17:47:15.248Z,3.70
2022-09-05T17:49:44.814Z,7.68
2022-09-05T17:52:12.289Z,3.17
2022-09-05T17:54:50.125Z,4.93
2022-09-05T17:57:33.417Z,8.07
2022-09-05T18:00:12.108Z,4.93
2022-09-05T18:02:59.804Z,4.18
2022-09-05T18:06:10.169Z,4.32
2022-09-05T18:08:53.234Z,4.70
2022-09-05T18:11:25.767Z,4.25
2022-09-05T18:14:25.287Z,4.45
2022-09-05T18:17:35.865Z,4.25
2022-09-05T18:19:47.223Z,5.20
2022-09-05T18:22:38.128Z,7.72
2022-09-05T18:25:28.936Z,5.30
2022-09-05T18:28:20.553Z,4.57
2022-09-05T18:30:56.178Z,4.32
2022-09-05T18:33:54.613Z,4.43
2022-09-05T18:36:27.650Z,4.13
2022-09-05T18:39:24.556Z,4.53
2022-09-05T18:42:34.017Z,4.45
2022-09-05T18:45:16.381Z,4.50
2022-09-05T18:48:01.651Z,4.00
2022-09-05T18:50:34.770Z,4.57
2022-09-05T18:53:12.685Z,4.72
2022-09-05T18:56:20.209Z,4.43
2022-09-05T18:59:12.167Z,4.85
2022-09-05T19:02:39.643Z,5.88
2022-09-05T19:05:28.516Z,5.25
2022-09-05T19:07:59.563Z,4.95
2022-09-05T19:10:36.904Z,5.03
2022-09-05T19:13:20.235Z,5.32
2022-09-05T19:16:43.629Z,5.13
2022-09-05T19:19:24.574Z,4.85
2022-09-05T19:23:02.639Z,5.10
2022-09-05T19:24:51.296Z,5.97
2022-09-05T19:27:25.257Z,5.75
2022-09-05T19:36:52.444Z,9.07
2022-09-05T19:37:11.013Z,8.45
2022-09-05T19:37:15.393Z,6.78
2022-09-05T19:41:24.353Z,7.07
2022-09-05T19:47:28.292Z,8.10
2022-09-05T19:47:57.688Z,8.18
2022-09-05T19:48:08.160Z,6.30
2022-09-05T19:50:35.861Z,7.55
2022-09-05T19:53:14.220Z,8.68
2022-09-05T19:55:41.323Z,6.95
2022-09-05T19:58:34.504Z,6.82
2022-09-05T20:01:06.279Z,7.05
2022-09-05T20:03:41.233Z,9.85
2022-09-05T20:06:28.802Z,10.07
2022-09-05T20:09:24.315Z,10.07
2022-09-05T20:11:56.526Z,11.05
2022-09-05T20:14:31.404Z,9.18
2022-09-05T20:17:35.324Z,11.05
2022-09-05T20:20:36.288Z,8.70
2022-09-05T20:23:13.385Z,11.40
2022-09-05T20:25:45.441Z,10.20
2022-09-05T20:28:23.291Z,9.43
2022-09-05T20:31:03.300Z,8.55
2022-09-05T20:33:52.071Z,9.85
2022-09-05T20:43:15.562Z,9.10
2022-09-05T20:43:27.433Z,9.38
2022-09-05T20:43:35.180Z,8.07
2022-09-05T20:46:16.120Z,7.07
2022-09-05T20:54:07.568Z,7.25
2022-09-05T20:54:18.418Z,7.90
2022-09-05T20:55:07.717Z,8.55
2022-09-05T20:57:52.420Z,8.07
2022-09-05T21:00:31.479Z,7.90
2022-09-05T21:02:59.887Z,9.32
2022-09-05T21:05:41.310Z,7.30
2022-09-05T21:08:35.600Z,6.20
2022-09-05T21:11:11.290Z,6.63
2022-09-05T21:13:52.499Z,8.25
2022-09-05T21:16:34.389Z,6.30
2022-09-05T21:19:01.503Z,5.95
2022-09-05T21:21:40.286Z,6.05
2022-09-05T21:24:18.859Z,5.75
2022-09-05T21:26:56.306Z,5.68
2022-09-05T21:29:33.114Z,5.53
2022-09-05T21:32:10.382Z,6.43
2022-09-05T21:34:56.301Z,6.53
2022-09-05T21:37:24.386Z,5.53
2022-09-05T21:40:00.911Z,6.13
2022-09-05T21:47:17.222Z,5.72
2022-09-05T21:47:43.099Z,5.50
2022-09-05T21:48:14.143Z,5.57
2022-09-05T21:50:56.328Z,5.88
2022-09-05T21:59:13.295Z,5.55
2022-09-05T21:59:17.169Z,5.80
2022-09-05T21:59:46.111Z,5.57
2022-09-05T22:02:14.373Z,5.32
2022-09-05T22:04:48.400Z,5.15
2022-09-05T22:07:15.651Z,5.80
2022-09-05T22:09:49.423Z,5.13
2022-09-05T22:12:30.685Z,5.00
2022-09-05T22:15:27.644Z,7.00
2022-09-05T22:18:17.069Z,6.22
2022-09-05T22:21:31.864Z,4.53
2022-09-05T22:23:50.318Z,5.05
2022-09-05T22:26:17.940Z,4.95
2022-09-05T22:28:44.983Z,5.30
2022-09-05T22:31:18.446Z,4.93
2022-09-05T22:33:46.085Z,6.53
2022-09-05T22:36:24.383Z,6.13
2022-09-05T22:38:54.683Z,5.10
2022-09-05T22:41:30.281Z,6.30
2022-09-05T22:43:58.258Z,5.07
2022-09-05T22:46:31.476Z,6.03
2022-09-05T22:49:05.366Z,5.40
2022-09-05T22:51:32.327Z,5.65
2022-09-05T22:53:59.327Z,6.13
2022-09-05T22:56:42.404Z,5.68
2022-09-05T22:59:09.497Z,6.15
2022-09-05T23:01:43.395Z,5.65
2022-09-05T23:04:17.580Z,5.55
2022-09-05T23:06:51.388Z,6.43
2022-09-05T23:09:18.332Z,5.40
2022-09-05T23:11:45.362Z,5.00
2022-09-05T23:14:18.353Z,5.72
2022-09-05T23:16:45.326Z,4.97
2022-09-05T23:19:18.370Z,5.22
2022-09-05T23:21:45.355Z,4.43
2022-09-05T23:24:12.382Z,5.32
2022-09-05T23:26:46.403Z,5.32
2022-09-05T23:29:13.404Z,5.07
2022-09-05T23:31:40.450Z,6.13
2022-09-05T23:34:14.374Z,5.22
2022-09-05T23:36:41.457Z,5.50
2022-09-05T23:39:15.414Z,5.63
2022-09-05T23:41:42.394Z,5.35
2022-09-05T23:44:09.310Z,5.43
2022-09-05T23:46:42.454Z,5.20
2022-09-05T23:49:16.429Z,5.30
2022-09-05T23:51:49.382Z,5.32
2022-09-05T23:54:16.463Z,5.10
2022-09-05T23:56:43.435Z,5.18
2022-09-05T23:59:17.418Z,4.95
